Terminal Aerodrome Forecast
Issued by NWS Spokane, WA

Home | Current Version | Previous Version | Text Only | Print | Product List | Glossary On
Versions: 1 2 3 4 5 6 7 8 9 10 11 12 13 14 15 16 17 18 19 20 21 22 23 24 25 26 27 28 29 30 31 32 33 34 35 36 37 38 39 40 41 42 43 44
000
FTUS46 KOTX 272330
TAFGEG
TAF
KGEG 272330Z 2800/2824 20015G25KT 4SM BR OVC006
      TEMPO 2800/2802 1 1/2SM -SN BR
     FM280300 23008KT 6SM BR BKN008 BKN050
     FM280900 24005KT 1SM BR OVC003
     FM281500 34005KT 3SM -SHSN BKN008 OVC015
     FM282000 06007KT P6SM VCSH SCT015 BKN050=

USA.gov is the U.S. government's official web portal to all federal, state and local government web resources and services.